createdAt,value
2023-05-14T00:02:01.629Z,11.52
2023-05-14T00:12:06.074Z,14.50
2023-05-14T00:17:08.587Z,8.77
2023-05-14T00:22:11.282Z,9.63
2023-05-14T00:27:13.285Z,12.77
2023-05-14T00:32:15.446Z,8.80
2023-05-14T00:37:17.431Z,15.63
2023-05-14T00:42:19.531Z,11.75
2023-05-14T00:47:21.612Z,9.35
2023-05-14T00:52:23.747Z,9.95
2023-05-14T00:57:25.781Z,9.45
2023-05-14T01:02:27.886Z,10.00
2023-05-14T01:08:00.631Z,9.98
2023-05-14T01:13:08.545Z,12.02
2023-05-14T01:18:13.893Z,9.68
2023-05-14T01:23:15.885Z,9.90
2023-05-14T01:28:20.378Z,9.45
2023-05-14T01:33:25.034Z,10.85
2023-05-14T01:38:31.041Z,8.80
2023-05-14T01:43:33.483Z,13.57
2023-05-14T01:53:37.520Z,8.93
2023-05-14T01:58:39.596Z,8.85
2023-05-14T02:03:41.731Z,12.05
2023-05-14T02:08:43.992Z,9.40
2023-05-14T02:13:45.989Z,16.20
2023-05-14T02:18:48.119Z,13.05
2023-05-14T02:23:50.526Z,9.43
2023-05-14T02:28:52.585Z,12.73
2023-05-14T02:33:54.597Z,11.18
2023-05-14T02:38:59.055Z,12.07
2023-05-14T02:44:01.056Z,12.23
2023-05-14T02:49:03.487Z,12.70
2023-05-14T02:59:07.630Z,9.88
2023-05-14T03:09:11.921Z,11.82
2023-05-14T03:14:13.966Z,10.13
2023-05-14T03:19:16.029Z,13.38
2023-05-14T03:24:17.998Z,13.73
2023-05-14T03:29:20.038Z,12.88
2023-05-14T03:34:22.276Z,13.55
2023-05-14T03:39:24.368Z,15.40
2023-05-14T03:44:26.432Z,10.88
2023-05-14T03:49:28.415Z,12.35
2023-05-14T03:54:30.524Z,11.23
2023-05-14T03:59:32.622Z,12.43
2023-05-14T04:04:34.820Z,12.20
2023-05-14T04:09:36.949Z,12.73
2023-05-14T04:14:39.009Z,14.85
2023-05-14T04:19:41.101Z,14.25
2023-05-14T04:24:43.040Z,12.10
2023-05-14T04:29:44.978Z,12.18
2023-05-14T04:34:47.581Z,10.32
2023-05-14T04:39:49.560Z,12.43
2023-05-14T04:44:51.555Z,12.38
2023-05-14T04:49:53.586Z,12.55
2023-05-14T04:54:55.605Z,10.27
2023-05-14T04:59:57.630Z,12.90
2023-05-14T05:04:59.601Z,8.30
2023-05-14T05:10:01.672Z,11.07
2023-05-14T05:15:04.023Z,9.90
2023-05-14T05:20:09.926Z,9.55
2023-05-14T05:25:13.209Z,8.88
2023-05-14T05:30:15.218Z,10.43
2023-05-14T05:35:17.280Z,8.73
2023-05-14T05:40:19.433Z,9.50
2023-05-14T05:45:21.706Z,7.88
2023-05-14T05:50:24.904Z,10.13
2023-05-14T05:55:27.410Z,7.80
2023-05-14T06:00:29.517Z,7.95
2023-05-14T06:05:31.598Z,9.70
2023-05-14T06:10:34.792Z,8.73
2023-05-14T06:15:36.889Z,5.68
2023-05-14T06:20:41.464Z,8.55
2023-05-14T06:25:44.054Z,6.80
2023-05-14T06:30:46.235Z,8.85
2023-05-14T06:35:48.420Z,7.18
2023-05-14T06:40:50.616Z,7.65
2023-05-14T06:45:54.675Z,6.50
2023-05-14T06:50:57.242Z,5.40
2023-05-14T06:55:59.348Z,6.22
2023-05-14T07:01:01.616Z,6.90
2023-05-14T07:06:03.892Z,7.18
2023-05-14T07:16:25.165Z,6.47
2023-05-14T07:21:27.219Z,5.90
2023-05-14T07:26:29.919Z,6.68
2023-05-14T07:31:32.605Z,5.43
2023-05-14T07:36:35.091Z,8.25
2023-05-14T07:41:38.063Z,5.70
2023-05-14T07:46:40.177Z,5.18
2023-05-14T07:51:42.223Z,6.03
2023-05-14T07:56:44.882Z,7.18
2023-05-14T08:01:47.410Z,4.90
2023-05-14T08:06:50.176Z,4.78
2023-05-14T08:11:52.193Z,3.10
2023-05-14T08:16:54.432Z,4.50
2023-05-14T08:21:56.590Z,4.88
2023-05-14T08:26:58.667Z,6.47
2023-05-14T08:32:08.450Z,5.85
2023-05-14T08:37:18.077Z,3.65
2023-05-14T08:42:22.387Z,5.00
2023-05-14T08:47:25.631Z,3.67
2023-05-14T08:52:28.097Z,3.63
2023-05-14T08:57:32.356Z,6.20
2023-05-14T09:02:35.356Z,4.35
2023-05-14T09:07:37.697Z,4.10
2023-05-14T09:12:39.891Z,3.33
2023-05-14T09:17:42.089Z,5.43
2023-05-14T09:22:44.194Z,3.85
2023-05-14T09:27:50.623Z,3.97
2023-05-14T09:32:55.434Z,8.00
2023-05-14T09:37:57.573Z,7.20
2023-05-14T09:43:02.125Z,5.40
2023-05-14T09:48:04.465Z,8.30
2023-05-14T09:53:07.698Z,4.40
2023-05-14T09:58:09.791Z,4.45
2023-05-14T10:03:16.050Z,4.32
2023-05-14T10:08:26.020Z,4.38
2023-05-14T10:13:37.527Z,2.72
2023-05-14T10:18:48.795Z,4.50
2023-05-14T10:23:52.614Z,3.35
2023-05-14T10:28:56.537Z,5.20
2023-05-14T10:33:59.934Z,5.65
2023-05-14T10:39:04.921Z,4.38
2023-05-14T10:44:09.849Z,2.85
2023-05-14T10:49:12.091Z,4.00
2023-05-14T10:54:14.270Z,4.43
2023-05-14T10:59:19.392Z,3.92
2023-05-14T11:04:24.739Z,5.88
2023-05-14T11:09:27.329Z,4.38
2023-05-14T11:14:29.490Z,4.13
2023-05-14T11:19:31.738Z,3.17
2023-05-14T11:24:33.876Z,4.63
2023-05-14T11:29:43.603Z,3.05
2023-05-14T11:34:46.798Z,3.58
2023-05-14T11:39:53.061Z,4.88
2023-05-14T11:44:55.159Z,4.80
2023-05-14T11:49:57.310Z,4.00
2023-05-14T11:54:59.381Z,3.75
2023-05-14T12:00:01.529Z,5.20
2023-05-14T12:05:03.651Z,5.97
2023-05-14T12:10:06.431Z,2.20
2023-05-14T12:15:16.807Z,4.40
2023-05-14T12:20:19.409Z,5.88
2023-05-14T12:25:21.752Z,3.83
2023-05-14T12:30:23.793Z,4.68
2023-05-14T12:35:25.995Z,3.20
2023-05-14T12:40:28.346Z,2.88
2023-05-14T12:45:31.075Z,3.72
2023-05-14T12:50:33.076Z,4.18
2023-05-14T12:55:35.173Z,2.97
2023-05-14T13:00:37.256Z,8.10
2023-05-14T13:05:39.543Z,2.50
2023-05-14T13:10:41.664Z,3.40
2023-05-14T13:15:43.845Z,3.40
2023-05-14T13:20:47.744Z,5.50
2023-05-14T13:25:50.128Z,4.78
2023-05-14T13:31:12.599Z,3.58
2023-05-14T13:36:15.415Z,3.15
2023-05-14T13:41:17.436Z,1.90
2023-05-14T13:46:19.578Z,4.35
2023-05-14T13:51:25.595Z,6.43
2023-05-14T13:56:27.685Z,4.70
2023-05-14T14:01:31.297Z,3.30
2023-05-14T14:06:33.566Z,4.15
2023-05-14T14:11:35.704Z,5.78
2023-05-14T14:16:37.928Z,5.88
2023-05-14T14:21:43.026Z,5.15
2023-05-14T14:26:45.078Z,2.22
2023-05-14T14:31:49.238Z,4.07
2023-05-14T14:36:51.397Z,4.38
2023-05-14T14:41:53.504Z,4.72
2023-05-14T14:46:55.629Z,3.83
2023-05-14T14:51:58.030Z,2.60
2023-05-14T14:57:00.153Z,4.13
2023-05-14T15:02:02.482Z,4.15
2023-05-14T15:07:05.106Z,6.32
2023-05-14T15:12:09.170Z,4.30
2023-05-14T15:17:11.264Z,2.83
2023-05-14T15:22:13.475Z,2.72
2023-05-14T15:27:16.043Z,4.35
2023-05-14T15:32:18.234Z,4.53
2023-05-14T15:37:21.033Z,3.67
2023-05-14T15:42:23.131Z,4.13
2023-05-14T15:47:25.296Z,3.45
2023-05-14T15:52:27.784Z,3.53
2023-05-14T15:57:29.980Z,5.07
2023-05-14T16:02:33.603Z,4.68
2023-05-14T16:07:37.470Z,3.05
2023-05-14T16:12:39.601Z,4.50
2023-05-14T16:17:42.843Z,4.53
2023-05-14T16:22:45.535Z,4.72
2023-05-14T16:27:47.765Z,3.25
2023-05-14T16:32:50.227Z,3.88
2023-05-14T16:37:52.570Z,3.72
2023-05-14T16:42:54.593Z,6.68
2023-05-14T16:47:56.759Z,4.75
2023-05-14T16:52:59.125Z,3.83
2023-05-14T16:58:03.533Z,3.97
2023-05-14T17:03:06.702Z,4.63
2023-05-14T17:08:08.813Z,3.58
2023-05-14T17:13:10.980Z,13.57
2023-05-14T17:18:13.449Z,4.93
2023-05-14T17:23:15.649Z,5.95
2023-05-14T17:28:17.794Z,6.50
2023-05-14T17:33:19.767Z,4.15
2023-05-14T17:38:21.898Z,6.57
2023-05-14T17:43:23.938Z,8.63
2023-05-14T17:48:26.036Z,14.40
2023-05-14T17:53:28.129Z,8.57
2023-05-14T17:58:30.317Z,6.05
2023-05-14T18:03:32.408Z,4.88
2023-05-14T18:08:35.322Z,4.35
2023-05-14T18:13:37.716Z,5.40
2023-05-14T18:18:39.900Z,4.18
2023-05-14T18:23:42.080Z,4.43
2023-05-14T18:28:44.502Z,4.03
2023-05-14T18:33:46.736Z,4.13
2023-05-14T18:38:48.923Z,6.65
2023-05-14T18:43:51.211Z,6.65
2023-05-14T18:48:53.327Z,3.95
2023-05-14T18:53:56.041Z,5.25
2023-05-14T18:58:58.997Z,7.07
2023-05-14T19:04:05.628Z,4.75
2023-05-14T19:09:11.111Z,4.90
2023-05-14T19:14:46.420Z,4.07
2023-05-14T19:20:09.806Z,5.28
2023-05-14T19:25:18.833Z,7.30
2023-05-14T19:30:24.041Z,6.50
2023-05-14T19:35:26.861Z,6.03
2023-05-14T19:40:29.402Z,8.60
2023-05-14T19:45:40.005Z,8.90
2023-05-14T19:50:43.019Z,12.98
2023-05-14T19:55:45.335Z,13.02
2023-05-14T20:00:55.926Z,13.02
2023-05-14T20:05:58.706Z,14.82
2023-05-14T20:11:06.785Z,12.02
2023-05-14T20:16:28.683Z,7.07
2023-05-14T20:21:32.747Z,13.30
2023-05-14T20:26:35.361Z,9.63
2023-05-14T20:31:38.009Z,11.10
2023-05-14T20:36:42.549Z,6.70
2023-05-14T20:41:46.068Z,7.30
2023-05-14T20:46:48.669Z,7.97
2023-05-14T20:51:50.828Z,10.60
2023-05-14T20:56:53.221Z,6.75
2023-05-14T21:01:55.574Z,7.22
2023-05-14T21:06:58.130Z,7.90
2023-05-14T21:12:00.887Z,12.05
2023-05-14T21:17:04.556Z,6.60
2023-05-14T21:22:07.849Z,7.13
2023-05-14T21:27:09.978Z,8.73
2023-05-14T21:32:12.433Z,5.85
2023-05-14T21:37:15.966Z,6.78
2023-05-14T21:42:19.153Z,5.60
2023-05-14T21:47:21.739Z,4.95
2023-05-14T21:52:23.842Z,8.68
2023-05-14T21:57:28.368Z,7.00
2023-05-14T22:02:31.575Z,3.92
2023-05-14T22:07:33.616Z,4.45
2023-05-14T22:12:35.652Z,5.72
2023-05-14T22:17:38.073Z,4.97
2023-05-14T22:22:40.122Z,6.18
2023-05-14T22:27:42.043Z,5.82
2023-05-14T22:32:44.301Z,7.47
2023-05-14T22:37:46.367Z,6.40
2023-05-14T22:42:48.328Z,8.85
2023-05-14T22:47:50.641Z,4.60
2023-05-14T22:52:52.718Z,5.22
2023-05-14T22:57:54.717Z,4.53
2023-05-14T23:02:56.665Z,5.57
2023-05-14T23:07:58.688Z,6.05
2023-05-14T23:13:00.777Z,3.10
2023-05-14T23:18:03.001Z,9.95
2023-05-14T23:23:06.592Z,4.63
2023-05-14T23:28:08.576Z,6.07
2023-05-14T23:33:10.759Z,4.70
2023-05-14T23:38:12.880Z,5.10
2023-05-14T23:43:15.322Z,3.85
2023-05-14T23:48:17.474Z,4.85
2023-05-14T23:53:19.460Z,5.75
2023-05-14T23:58:21.400Z,4.22
